createdAt,value
2022-09-02T00:01:26.790Z,27.90
2022-09-02T00:06:33.731Z,28.20
2022-09-02T00:11:42.523Z,28.50
2022-09-02T00:16:52.915Z,28.70
2022-09-02T00:21:59.905Z,28.70
2022-09-02T00:27:05.242Z,28.70
2022-09-02T00:32:11.305Z,28.50
2022-09-02T00:37:18.031Z,28.50
2022-09-02T00:42:25.204Z,28.50
2022-09-02T00:47:32.583Z,28.70
2022-09-02T00:52:45.312Z,29.10
2022-09-02T00:57:54.593Z,29.40
2022-09-02T01:03:05.109Z,29.70
2022-09-02T01:08:11.530Z,29.80
2022-09-02T01:13:22.027Z,29.90
2022-09-02T01:18:31.410Z,30.20
2022-09-02T01:23:38.169Z,30.40
2022-09-02T01:28:43.498Z,30.80
2022-09-02T01:33:49.505Z,31.60
2022-09-02T01:38:55.943Z,32.10
2022-09-02T01:44:01.632Z,32.10
2022-09-02T01:49:07.858Z,32.00
2022-09-02T01:54:14.374Z,31.80
2022-09-02T01:59:22.480Z,32.20
2022-09-02T02:04:29.205Z,32.50
2022-09-02T02:09:36.204Z,32.50
2022-09-02T02:14:42.422Z,32.60
2022-09-02T02:19:48.245Z,32.70
2022-09-02T02:24:53.876Z,32.90
2022-09-02T02:29:59.691Z,33.60
2022-09-02T02:35:07.453Z,34.00
2022-09-02T02:40:14.973Z,34.20
2022-09-02T02:45:20.545Z,34.20
2022-09-02T02:50:26.065Z,34.00
2022-09-02T02:55:32.120Z,34.30
2022-09-02T03:00:38.438Z,33.80
2022-09-02T03:05:43.948Z,33.30
2022-09-02T03:10:54.538Z,33.80
2022-09-02T03:16:04.931Z,33.10
2022-09-02T03:21:12.451Z,33.40
2022-09-02T03:26:21.354Z,33.90
2022-09-02T03:31:28.807Z,33.60
2022-09-02T03:36:41.147Z,34.10
2022-09-02T03:41:50.290Z,34.60
2022-09-02T03:46:56.032Z,34.90
2022-09-02T03:52:01.493Z,34.80
2022-09-02T03:57:07.007Z,34.80
2022-09-02T04:02:12.876Z,34.80
2022-09-02T04:07:20.015Z,34.70
2022-09-02T04:12:25.923Z,34.90
2022-09-02T04:17:42.806Z,35.20
2022-09-02T04:22:51.013Z,34.90
2022-09-02T04:27:57.415Z,34.90
2022-09-02T04:33:03.139Z,34.70
2022-09-02T04:38:09.848Z,35.20
2022-09-02T04:43:15.521Z,37.10
2022-09-02T04:48:21.247Z,38.70
2022-09-02T04:53:27.603Z,37.40
2022-09-02T04:58:33.349Z,35.70
2022-09-02T05:03:39.981Z,35.00
2022-09-02T05:08:49.518Z,36.70
2022-09-02T05:13:55.240Z,36.20
2022-09-02T05:19:02.086Z,36.10
2022-09-02T05:24:15.041Z,35.50
2022-09-02T05:29:22.079Z,36.50
2022-09-02T05:34:27.923Z,39.50
2022-09-02T05:39:37.589Z,40.80
2022-09-02T05:44:46.661Z,42.10
2022-09-02T05:49:56.445Z,42.50
2022-09-02T05:55:05.837Z,40.00
2022-09-02T06:00:18.183Z,39.00
2022-09-02T06:05:33.997Z,40.70
2022-09-02T06:10:47.198Z,42.30
2022-09-02T06:15:59.527Z,42.50
2022-09-02T06:21:08.935Z,41.70
2022-09-02T06:26:20.657Z,41.50
2022-09-02T06:31:28.284Z,41.20
2022-09-02T06:36:43.747Z,42.20
2022-09-02T06:41:50.588Z,44.00
2022-09-02T06:47:01.613Z,43.70
2022-09-02T06:52:08.178Z,42.70
2022-09-02T06:57:16.095Z,39.60
2022-09-02T07:02:21.517Z,37.90
2022-09-02T07:07:26.901Z,37.10
2022-09-02T07:12:44.768Z,36.60
2022-09-02T07:17:55.611Z,36.30
2022-09-02T07:23:10.829Z,37.30
2022-09-02T07:28:16.706Z,37.80
2022-09-02T07:33:27.111Z,37.40
2022-09-02T07:38:35.617Z,36.60
2022-09-02T07:43:42.792Z,36.10
2022-09-02T07:48:51.664Z,35.90
2022-09-02T07:53:57.015Z,35.90
2022-09-02T07:59:02.662Z,37.80
2022-09-02T08:04:09.053Z,39.20
2022-09-02T08:09:14.862Z,39.40
2022-09-02T08:14:27.862Z,38.60
2022-09-02T08:19:33.936Z,37.90
2022-09-02T08:24:39.606Z,37.60
2022-09-02T08:29:44.914Z,37.20
2022-09-02T08:34:50.006Z,36.90
2022-09-02T08:39:55.714Z,36.50
2022-09-02T08:45:22.029Z,36.00
2022-09-02T08:50:28.030Z,35.90
2022-09-02T08:56:00.721Z,35.40
2022-09-02T09:01:26.413Z,35.10
2022-09-02T09:06:46.573Z,34.90
2022-09-02T09:12:20.115Z,35.10
2022-09-02T09:17:28.718Z,35.10
2022-09-02T09:22:40.718Z,35.00
2022-09-02T09:27:49.362Z,35.00
2022-09-02T09:33:01.611Z,34.70
2022-09-02T09:38:15.667Z,34.60
2022-09-02T09:43:21.341Z,34.40
2022-09-02T09:48:33.024Z,34.10
2022-09-02T09:53:39.901Z,34.00
2022-09-02T09:58:48.654Z,34.00
2022-09-02T10:03:58.561Z,33.80
2022-09-02T10:09:21.808Z,33.70
2022-09-02T10:14:35.761Z,33.80
2022-09-02T10:19:59.958Z,33.80
2022-09-02T10:25:30.076Z,33.70
2022-09-02T10:30:45.841Z,33.60
2022-09-02T10:36:20.935Z,33.40
2022-09-02T10:41:47.784Z,33.30
2022-09-02T10:47:11.117Z,33.10
2022-09-02T10:52:44.204Z,32.90
2022-09-02T10:58:10.122Z,32.80
2022-09-02T11:03:17.500Z,32.60
2022-09-02T11:08:39.130Z,32.40
2022-09-02T11:13:53.529Z,32.30
2022-09-02T11:19:08.051Z,32.00
2022-09-02T11:24:45.879Z,31.90
2022-09-02T11:30:08.617Z,31.80
2022-09-02T11:35:28.110Z,31.70
2022-09-02T11:40:39.351Z,31.60
2022-09-02T11:46:03.157Z,31.50
2022-09-02T11:51:24.149Z,31.40
2022-09-02T11:56:37.019Z,31.40
2022-09-02T12:01:56.443Z,31.30
2022-09-02T12:07:09.569Z,31.30
2022-09-02T12:12:53.754Z,31.30
2022-09-02T12:18:00.641Z,31.30
2022-09-02T12:23:07.468Z,31.20
2022-09-02T12:28:25.575Z,31.10
2022-09-02T12:33:40.235Z,31.10
2022-09-02T12:38:45.747Z,31.10
2022-09-02T12:44:40.807Z,31.00
2022-09-02T12:50:06.676Z,31.00
2022-09-02T12:55:31.826Z,30.90
2022-09-02T13:01:13.093Z,30.90
2022-09-02T13:06:32.313Z,30.80
2022-09-02T13:12:07.723Z,30.70
2022-09-02T13:17:36.468Z,30.80
2022-09-02T13:22:51.508Z,30.70
2022-09-02T13:28:09.815Z,30.70
2022-09-02T13:33:16.604Z,30.70
2022-09-02T13:38:27.263Z,30.70
2022-09-02T13:43:32.683Z,30.70
2022-09-02T13:48:42.312Z,30.70
2022-09-02T13:54:22.261Z,30.70
2022-09-02T13:59:34.994Z,30.70
2022-09-02T14:04:41.167Z,30.70
2022-09-02T14:09:48.024Z,30.60
2022-09-02T14:14:53.615Z,30.60
2022-09-02T14:20:17.161Z,30.50
2022-09-02T14:25:27.119Z,30.40
2022-09-02T14:30:42.199Z,30.40
2022-09-02T14:36:06.055Z,30.30
2022-09-02T14:41:22.335Z,30.20
2022-09-02T14:46:38.989Z,30.10
2022-09-02T14:51:53.988Z,30.00
2022-09-02T14:56:59.872Z,30.00
2022-09-02T15:02:05.638Z,29.90
2022-09-02T15:07:11.235Z,29.90
2022-09-02T15:12:20.065Z,29.90
2022-09-02T15:17:26.641Z,29.80
2022-09-02T15:22:32.271Z,29.80
2022-09-02T15:27:39.535Z,29.80
2022-09-02T15:32:44.798Z,29.70
2022-09-02T15:37:51.446Z,29.70
2022-09-02T15:42:58.998Z,29.70
2022-09-02T15:48:04.404Z,29.60
2022-09-02T15:53:09.515Z,29.50
2022-09-02T15:58:16.083Z,29.50
2022-09-02T16:03:21.624Z,29.40
2022-09-02T16:08:26.936Z,29.40
2022-09-02T16:13:33.761Z,29.40
2022-09-02T16:18:40.605Z,29.40
2022-09-02T16:23:46.202Z,29.40
2022-09-02T16:28:52.975Z,29.40
2022-09-02T16:34:04.515Z,29.40
2022-09-02T16:39:12.118Z,29.30
2022-09-02T16:44:19.922Z,29.30
2022-09-02T16:49:26.408Z,29.20
2022-09-02T16:54:37.459Z,29.20
2022-09-02T16:59:46.178Z,29.10
2022-09-02T17:04:51.191Z,29.10
2022-09-02T17:09:58.877Z,29.10
2022-09-02T17:15:05.030Z,29.00
2022-09-02T17:20:11.750Z,29.00
2022-09-02T17:25:18.010Z,29.00
2022-09-02T17:30:24.577Z,29.00
2022-09-02T17:35:30.599Z,29.10
2022-09-02T17:40:54.460Z,29.10
2022-09-02T17:46:12.549Z,29.10
2022-09-02T17:51:19.751Z,29.10
2022-09-02T17:56:37.728Z,29.00
2022-09-02T18:01:59.286Z,29.00
2022-09-02T18:07:20.059Z,28.90
2022-09-02T18:12:26.237Z,28.80
2022-09-02T18:18:05.084Z,28.70
2022-09-02T18:23:28.706Z,28.70
2022-09-02T18:28:40.523Z,28.70
2022-09-02T18:33:48.918Z,28.70
2022-09-02T18:39:28.618Z,28.60
2022-09-02T18:44:55.559Z,28.60
2022-09-02T18:50:05.624Z,28.50
2022-09-02T18:55:20.736Z,28.50
2022-09-02T19:00:26.462Z,28.50
2022-09-02T19:05:33.916Z,28.50
2022-09-02T19:10:41.265Z,28.40
2022-09-02T19:15:46.639Z,28.40
2022-09-02T19:20:52.894Z,28.40
2022-09-02T19:26:00.683Z,28.30
2022-09-02T19:31:07.167Z,28.30
2022-09-02T19:36:14.860Z,28.30
2022-09-02T19:41:20.493Z,28.40
2022-09-02T19:51:52.133Z,28.50
2022-09-02T19:56:57.344Z,28.30
2022-09-02T20:02:05.843Z,28.30
2022-09-02T20:07:11.645Z,28.20
2022-09-02T20:12:17.261Z,28.20
2022-09-02T20:17:23.805Z,28.30
2022-09-02T20:22:31.529Z,28.30
2022-09-02T20:28:13.787Z,28.30
2022-09-02T20:33:23.510Z,28.30
2022-09-02T20:38:31.819Z,28.30
2022-09-02T20:43:56.017Z,28.20
2022-09-02T20:49:16.377Z,28.10
2022-09-02T20:54:29.534Z,28.10
2022-09-02T20:59:53.226Z,28.00
2022-09-02T21:05:14.423Z,28.00
2022-09-02T21:10:50.554Z,28.00
2022-09-02T21:16:00.196Z,27.90
2022-09-02T21:21:19.893Z,27.90
2022-09-02T21:26:40.440Z,27.90
2022-09-02T21:32:01.047Z,27.90
2022-09-02T21:37:07.184Z,27.90
2022-09-02T21:42:29.018Z,27.90
2022-09-02T21:47:55.352Z,28.00
2022-09-02T21:53:14.256Z,28.00
2022-09-02T21:58:38.256Z,28.10
2022-09-02T22:03:57.525Z,28.10
2022-09-02T22:09:15.585Z,28.10
2022-09-02T22:14:37.658Z,28.00
2022-09-02T22:19:45.253Z,28.00
2022-09-02T22:24:52.760Z,28.00
2022-09-02T22:30:18.654Z,27.90
2022-09-02T22:35:35.669Z,27.90
2022-09-02T22:40:50.677Z,27.80
2022-09-02T22:46:22.930Z,27.80
2022-09-02T22:51:53.440Z,27.80
2022-09-02T22:57:09.795Z,27.90
2022-09-02T23:02:33.390Z,28.00
2022-09-02T23:07:39.905Z,28.10
2022-09-02T23:12:59.866Z,28.10
2022-09-02T23:18:15.522Z,28.20
2022-09-02T23:23:28.775Z,28.30
2022-09-02T23:28:54.123Z,28.30
2022-09-02T23:33:59.324Z,28.40
2022-09-02T23:39:19.536Z,28.60
2022-09-02T23:44:27.176Z,28.70
2022-09-02T23:49:53.928Z,28.80
2022-09-02T23:55:39.468Z,29.00
